createdAt,value
2023-04-06T00:01:22.117Z,9.40
2023-04-06T00:03:49.488Z,8.50
2023-04-06T00:06:17.469Z,8.65
2023-04-06T00:08:45.658Z,8.95
2023-04-06T00:11:13.022Z,9.25
2023-04-06T00:13:40.424Z,8.90
2023-04-06T00:16:07.884Z,8.95
2023-04-06T00:18:35.329Z,8.43
2023-04-06T00:21:02.718Z,8.50
2023-04-06T00:23:30.419Z,8.00
2023-04-06T00:25:57.847Z,8.60
2023-04-06T00:28:27.948Z,8.45
2023-04-06T00:30:56.410Z,9.18
2023-04-06T00:33:24.143Z,9.15
2023-04-06T00:35:51.669Z,8.55
2023-04-06T00:38:19.174Z,8.23
2023-04-06T00:40:46.588Z,8.45
2023-04-06T00:43:14.101Z,8.10
2023-04-06T00:45:41.990Z,8.30
2023-04-06T00:48:09.519Z,7.95
2023-04-06T00:50:37.005Z,9.10
2023-04-06T00:53:04.320Z,8.70
2023-04-06T00:55:31.863Z,8.52
2023-04-06T00:58:01.276Z,8.20
2023-04-06T01:00:31.631Z,8.90
2023-04-06T01:03:02.160Z,8.55
2023-04-06T01:05:41.453Z,8.90
2023-04-06T01:08:14.593Z,8.63
2023-04-06T01:10:42.169Z,8.30
2023-04-06T01:13:16.186Z,8.63
2023-04-06T01:15:48.767Z,8.13
2023-04-06T01:18:29.510Z,9.13
2023-04-06T01:21:26.360Z,8.80
2023-04-06T01:24:08.949Z,8.18
2023-04-06T01:26:57.525Z,7.95
2023-04-06T01:29:26.914Z,8.27
2023-04-06T01:31:54.688Z,8.38
2023-04-06T01:34:22.128Z,8.93
2023-04-06T01:36:49.703Z,8.55
2023-04-06T01:39:27.599Z,8.18
2023-04-06T01:41:55.032Z,8.90
2023-04-06T01:44:22.947Z,9.20
2023-04-06T01:46:58.433Z,8.93
2023-04-06T01:49:26.091Z,9.35
2023-04-06T01:51:56.512Z,9.45
2023-04-06T01:54:24.127Z,9.13
2023-04-06T01:57:03.556Z,8.73
2023-04-06T02:02:22.606Z,8.32
2023-04-06T02:05:06.568Z,8.38
2023-04-06T02:07:34.253Z,9.00
2023-04-06T02:10:02.935Z,9.15
2023-04-06T02:12:36.923Z,10.20
2023-04-06T02:15:06.757Z,10.75
2023-04-06T02:17:34.231Z,9.95
2023-04-06T02:20:01.632Z,8.98
2023-04-06T02:22:28.966Z,9.45
2023-04-06T02:24:56.485Z,9.43
2023-04-06T02:27:24.051Z,9.13
2023-04-06T02:29:51.458Z,10.05
2023-04-06T02:32:21.293Z,9.70
2023-04-06T02:34:49.576Z,10.10
2023-04-06T02:37:19.122Z,9.25
2023-04-06T02:39:46.562Z,9.30
2023-04-06T02:42:16.108Z,9.52
2023-04-06T02:44:44.507Z,10.02
2023-04-06T02:47:12.500Z,9.25
2023-04-06T02:49:42.523Z,9.35
2023-04-06T02:52:10.368Z,9.52
2023-04-06T02:54:37.983Z,9.35
2023-04-06T02:57:06.742Z,9.73
2023-04-06T02:59:41.380Z,9.45
2023-04-06T03:02:15.247Z,9.43
2023-04-06T03:04:43.753Z,9.82
2023-04-06T03:07:20.783Z,10.57
2023-04-06T03:09:48.172Z,10.30
2023-04-06T03:12:15.530Z,9.55
2023-04-06T03:15:09.483Z,9.93
2023-04-06T03:17:38.334Z,10.52
2023-04-06T03:20:10.996Z,9.80
2023-04-06T03:22:38.549Z,9.52
2023-04-06T03:25:08.180Z,9.80
2023-04-06T03:27:35.608Z,10.63
2023-04-06T03:30:04.175Z,9.95
2023-04-06T03:32:35.455Z,11.25
2023-04-06T03:35:03.416Z,10.85
2023-04-06T03:37:32.177Z,11.80
2023-04-06T03:40:04.139Z,11.18
2023-04-06T03:42:31.919Z,11.30
2023-04-06T03:45:04.711Z,10.90
2023-04-06T03:47:32.652Z,10.98
2023-04-06T03:50:04.597Z,10.90
2023-04-06T03:52:34.065Z,10.68
2023-04-06T03:55:01.535Z,10.95
2023-04-06T03:57:28.882Z,10.75
2023-04-06T03:59:58.802Z,11.00
2023-04-06T04:02:27.362Z,10.80
2023-04-06T04:04:54.884Z,11.50
2023-04-06T04:07:22.245Z,11.55
2023-04-06T04:09:49.597Z,11.00
2023-04-06T04:12:17.708Z,10.60
2023-04-06T04:14:45.233Z,11.52
2023-04-06T04:17:12.641Z,12.20
2023-04-06T04:19:39.970Z,11.20
2023-04-06T04:22:07.650Z,10.52
2023-04-06T04:24:38.954Z,11.40
2023-04-06T04:27:06.333Z,11.38
2023-04-06T04:29:34.746Z,11.10
2023-04-06T04:32:06.791Z,11.68
2023-04-06T04:34:34.701Z,13.07
2023-04-06T04:37:03.285Z,11.48
2023-04-06T04:39:52.517Z,11.90
2023-04-06T04:42:19.888Z,11.73
2023-04-06T04:44:51.700Z,11.73
2023-04-06T04:47:30.447Z,11.52
2023-04-06T04:49:58.295Z,11.30
2023-04-06T04:52:26.534Z,11.57
2023-04-06T04:55:00.881Z,12.27
2023-04-06T04:57:29.932Z,11.32
2023-04-06T04:59:58.255Z,11.27
2023-04-06T05:02:25.943Z,12.07
2023-04-06T05:05:11.913Z,11.40
2023-04-06T05:07:40.639Z,10.68
2023-04-06T05:10:12.140Z,11.20
2023-04-06T05:12:49.634Z,12.07
2023-04-06T05:15:17.172Z,11.50
2023-04-06T05:17:45.006Z,14.90
2023-04-06T05:20:17.027Z,13.02
2023-04-06T05:22:49.351Z,13.18
2023-04-06T05:25:16.862Z,10.75
2023-04-06T05:27:45.429Z,10.15
2023-04-06T05:30:26.809Z,11.48
2023-04-06T05:32:54.184Z,10.52
2023-04-06T05:35:23.536Z,10.65
2023-04-06T05:37:55.234Z,10.23
2023-04-06T05:40:25.576Z,10.70
2023-04-06T05:42:53.470Z,10.60
2023-04-06T05:45:22.330Z,11.20
2023-04-06T05:47:54.549Z,10.23
2023-04-06T05:50:28.487Z,10.45
2023-04-06T05:52:57.109Z,10.70
2023-04-06T05:55:28.962Z,21.30
2023-04-06T05:58:08.635Z,11.57
2023-04-06T06:00:36.986Z,10.30
2023-04-06T06:03:09.533Z,11.43
2023-04-06T06:05:39.049Z,10.85
2023-04-06T06:08:11.531Z,9.98
2023-04-06T06:10:40.827Z,9.80
2023-04-06T06:13:11.262Z,10.00
2023-04-06T06:15:38.802Z,10.05
2023-04-06T06:18:07.006Z,9.88
2023-04-06T06:20:34.649Z,10.65
2023-04-06T06:23:05.109Z,11.32
2023-04-06T06:25:33.920Z,10.93
2023-04-06T06:28:01.354Z,10.23
2023-04-06T06:30:31.405Z,9.98
2023-04-06T06:32:59.935Z,10.68
2023-04-06T06:35:28.985Z,10.32
2023-04-06T06:37:56.741Z,10.23
2023-04-06T06:40:28.037Z,10.95
2023-04-06T06:42:56.568Z,10.75
2023-04-06T06:45:56.384Z,10.23
2023-04-06T06:48:24.230Z,10.38
2023-04-06T06:50:51.735Z,9.90
2023-04-06T06:53:19.196Z,10.95
2023-04-06T06:55:46.794Z,10.40
2023-04-06T06:58:14.216Z,10.18
2023-04-06T07:00:41.908Z,10.63
2023-04-06T07:03:09.374Z,11.10
2023-04-06T07:05:37.640Z,11.63
2023-04-06T07:08:07.086Z,11.75
2023-04-06T07:10:34.486Z,11.30
2023-04-06T07:13:01.827Z,11.13
2023-04-06T07:15:29.275Z,11.57
2023-04-06T07:17:56.896Z,10.80
2023-04-06T07:20:24.969Z,10.27
2023-04-06T07:22:52.523Z,10.63
2023-04-06T07:25:19.864Z,11.65
2023-04-06T07:27:47.386Z,12.60
2023-04-06T07:30:15.110Z,10.23
2023-04-06T07:32:43.316Z,10.38
2023-04-06T07:35:10.782Z,11.35
2023-04-06T07:37:38.350Z,10.90
2023-04-06T07:40:06.533Z,10.30
2023-04-06T07:42:34.830Z,9.75
2023-04-06T07:45:05.244Z,10.32
2023-04-06T07:47:33.528Z,9.68
2023-04-06T07:50:02.211Z,10.70
2023-04-06T07:52:31.122Z,10.10
2023-04-06T07:54:59.422Z,9.93
2023-04-06T07:57:26.763Z,10.60
2023-04-06T07:59:54.175Z,11.02
2023-04-06T08:02:21.736Z,10.85
2023-04-06T08:04:49.262Z,10.00
2023-04-06T08:07:16.685Z,10.70
2023-04-06T08:09:44.021Z,10.70
2023-04-06T08:12:11.518Z,10.77
2023-04-06T08:14:38.886Z,9.88
2023-04-06T08:17:06.667Z,10.15
2023-04-06T08:19:34.139Z,11.15
2023-04-06T08:22:01.744Z,10.88
2023-04-06T08:24:29.090Z,10.50
2023-04-06T08:26:56.561Z,10.93
2023-04-06T08:29:24.519Z,10.38
2023-04-06T08:31:51.889Z,10.25
2023-04-06T08:34:19.297Z,10.75
2023-04-06T08:36:47.042Z,10.07
2023-04-06T08:39:14.400Z,10.32
2023-04-06T08:41:45.108Z,10.02
2023-04-06T08:44:12.578Z,10.20
2023-04-06T08:46:39.953Z,10.00
2023-04-06T08:49:08.962Z,11.30
2023-04-06T08:51:38.394Z,10.70
2023-04-06T08:54:06.182Z,10.30
2023-04-06T08:56:33.693Z,10.23
2023-04-06T08:59:01.140Z,10.27
2023-04-06T09:01:29.197Z,10.52
2023-04-06T09:04:01.351Z,10.40
2023-04-06T09:06:29.179Z,10.05
2023-04-06T09:08:57.618Z,10.32
2023-04-06T09:11:25.042Z,10.15
2023-04-06T09:13:53.948Z,10.25
2023-04-06T09:16:21.408Z,10.93
2023-04-06T09:18:49.149Z,10.63
2023-04-06T09:21:22.618Z,10.20
2023-04-06T09:24:01.715Z,10.38
2023-04-06T09:26:29.244Z,9.52
2023-04-06T09:28:57.979Z,10.68
2023-04-06T09:31:30.055Z,11.30
2023-04-06T09:33:57.681Z,10.43
2023-04-06T09:36:35.952Z,11.13
2023-04-06T09:39:04.408Z,10.98
2023-04-06T09:41:33.578Z,10.30
2023-04-06T09:44:07.978Z,10.60
2023-04-06T09:46:50.496Z,11.80
2023-04-06T09:49:24.773Z,11.18
2023-04-06T09:51:59.815Z,10.98
2023-04-06T09:54:31.589Z,11.15
2023-04-06T09:57:20.819Z,11.40
2023-04-06T10:00:15.590Z,10.75
2023-04-06T10:03:11.030Z,11.25
2023-04-06T10:05:50.720Z,10.82
2023-04-06T10:08:18.164Z,10.85
2023-04-06T10:10:45.899Z,10.93
2023-04-06T10:13:13.288Z,10.27
2023-04-06T10:15:41.643Z,10.60
2023-04-06T10:18:09.098Z,11.27
2023-04-06T10:20:56.177Z,10.60
2023-04-06T10:23:29.655Z,11.13
2023-04-06T10:26:00.854Z,10.63
2023-04-06T10:28:32.870Z,10.43
2023-04-06T10:31:02.005Z,12.93
2023-04-06T10:33:29.518Z,11.40
2023-04-06T10:35:57.094Z,11.23
2023-04-06T10:38:41.930Z,10.57
2023-04-06T10:41:10.785Z,11.27
2023-04-06T10:43:41.541Z,10.77
2023-04-06T10:46:10.003Z,10.48
2023-04-06T10:48:39.729Z,10.82
2023-04-06T10:51:11.784Z,10.82
2023-04-06T10:53:39.202Z,11.48
2023-04-06T10:56:08.641Z,10.55
2023-04-06T10:58:36.329Z,10.60
2023-04-06T11:01:03.955Z,10.70
2023-04-06T11:03:33.288Z,7.72
2023-04-06T11:06:00.817Z,10.82
2023-04-06T11:08:30.959Z,9.00
2023-04-06T11:11:26.873Z,10.73
2023-04-06T11:14:00.676Z,10.27
2023-04-06T11:16:32.261Z,10.50
2023-04-06T11:19:10.546Z,10.43
2023-04-06T11:21:48.421Z,10.32
2023-04-06T11:24:20.303Z,10.38
2023-04-06T11:26:58.817Z,9.82
2023-04-06T11:29:31.001Z,9.50
2023-04-06T11:32:05.547Z,9.15
2023-04-06T11:34:42.085Z,9.15
2023-04-06T11:37:10.993Z,10.00
2023-04-06T11:39:44.212Z,10.05
2023-04-06T11:42:11.795Z,10.63
2023-04-06T11:44:43.629Z,9.30
2023-04-06T11:47:11.584Z,11.20
2023-04-06T11:49:40.262Z,9.45
2023-04-06T11:52:21.460Z,9.45
2023-04-06T11:54:49.635Z,8.50
2023-04-06T11:57:17.756Z,12.10
2023-04-06T11:59:45.605Z,10.60
2023-04-06T12:02:13.141Z,11.20
2023-04-06T12:04:40.626Z,11.10
2023-04-06T12:07:08.066Z,11.10
2023-04-06T12:09:35.698Z,10.60
2023-04-06T12:12:03.260Z,9.93
2023-04-06T12:14:31.773Z,10.20
2023-04-06T12:16:59.558Z,10.55
2023-04-06T12:19:27.183Z,10.30
2023-04-06T12:21:55.554Z,10.63
2023-04-06T12:24:23.092Z,9.27
2023-04-06T12:26:54.020Z,7.70
2023-04-06T12:29:27.098Z,7.47
2023-04-06T12:31:54.656Z,7.45
2023-04-06T12:34:22.048Z,8.15
2023-04-06T12:36:49.427Z,7.85
2023-04-06T12:39:19.289Z,9.10
2023-04-06T12:41:47.882Z,8.88
2023-04-06T12:44:15.295Z,8.68
2023-04-06T12:46:44.251Z,8.55
2023-04-06T12:49:12.257Z,7.90
2023-04-06T12:51:39.658Z,8.50
2023-04-06T12:54:07.483Z,8.40
2023-04-06T12:56:34.875Z,8.13
2023-04-06T12:59:02.424Z,8.10
2023-04-06T13:01:30.125Z,7.70
2023-04-06T13:04:00.582Z,7.95
2023-04-06T13:06:28.903Z,7.85
2023-04-06T13:08:56.602Z,8.88
2023-04-06T13:11:28.558Z,8.55
2023-04-06T13:13:56.410Z,8.13
2023-04-06T13:16:23.855Z,8.35
2023-04-06T13:18:51.415Z,8.48
2023-04-06T13:21:19.007Z,8.10
2023-04-06T13:23:46.344Z,8.30
2023-04-06T13:26:14.760Z,7.20
2023-04-06T13:28:42.521Z,7.88
2023-04-06T13:31:10.834Z,7.82
2023-04-06T13:33:39.437Z,8.25
2023-04-06T13:36:07.622Z,8.75
2023-04-06T13:38:35.260Z,8.63
2023-04-06T13:41:02.721Z,8.13
2023-04-06T13:43:30.312Z,8.70
2023-04-06T13:46:00.968Z,8.55
2023-04-06T13:48:28.458Z,8.30
2023-04-06T13:50:56.162Z,8.70
2023-04-06T13:53:23.585Z,7.88
2023-04-06T13:55:55.439Z,8.15
2023-04-06T13:58:22.863Z,8.07
2023-04-06T14:00:50.819Z,8.38
2023-04-06T14:03:18.325Z,7.57
2023-04-06T14:05:46.488Z,8.40
2023-04-06T14:08:14.033Z,8.13
2023-04-06T14:10:41.916Z,7.75
2023-04-06T14:13:09.298Z,7.60
2023-04-06T14:15:36.745Z,7.70
2023-04-06T14:18:04.257Z,6.60
2023-04-06T14:20:34.435Z,6.85
2023-04-06T14:23:02.901Z,7.00
2023-04-06T14:25:32.464Z,7.20
2023-04-06T14:27:59.849Z,7.35
2023-04-06T14:30:28.938Z,7.18
2023-04-06T14:32:59.110Z,6.85
2023-04-06T14:35:29.052Z,7.10
2023-04-06T14:37:59.024Z,7.65
2023-04-06T14:40:26.522Z,6.78
2023-04-06T14:42:53.838Z,7.25
2023-04-06T14:45:22.775Z,7.20
2023-04-06T14:47:51.473Z,7.10
2023-04-06T14:50:18.814Z,6.57
2023-04-06T14:52:47.281Z,7.50
2023-04-06T14:55:15.037Z,7.22
2023-04-06T14:57:42.365Z,7.32
2023-04-06T15:00:10.640Z,6.80
2023-04-06T15:02:38.815Z,6.60
2023-04-06T15:05:07.050Z,6.50
2023-04-06T15:07:34.575Z,6.93
2023-04-06T15:10:01.958Z,6.70
2023-04-06T15:12:30.542Z,6.20
2023-04-06T15:14:58.020Z,6.43
2023-04-06T15:17:27.418Z,5.97
2023-04-06T15:19:55.353Z,6.43
2023-04-06T15:22:22.784Z,6.20
2023-04-06T15:24:50.369Z,6.68
2023-04-06T15:27:17.695Z,6.22
2023-04-06T15:29:45.003Z,5.93
2023-04-06T15:32:13.268Z,5.68
2023-04-06T15:34:40.802Z,5.25
2023-04-06T15:37:08.924Z,4.82
2023-04-06T15:39:37.779Z,4.75
2023-04-06T15:42:05.299Z,5.40
2023-04-06T15:44:32.646Z,4.70
2023-04-06T15:47:00.211Z,5.20
2023-04-06T15:49:27.693Z,6.85
2023-04-06T15:51:55.007Z,5.50
2023-04-06T15:54:22.381Z,5.50
2023-04-06T15:56:50.616Z,5.10
2023-04-06T15:59:18.056Z,5.20
2023-04-06T16:01:46.818Z,5.78
2023-04-06T16:04:14.952Z,5.45
2023-04-06T16:06:45.320Z,6.45
2023-04-06T16:09:12.629Z,5.63
2023-04-06T16:11:40.055Z,5.57
2023-04-06T16:14:08.257Z,5.97
2023-04-06T16:16:35.684Z,5.75
2023-04-06T16:19:03.138Z,6.15
2023-04-06T16:21:31.852Z,6.40
2023-04-06T16:24:00.175Z,6.22
2023-04-06T16:26:27.649Z,6.30
2023-04-06T16:28:55.419Z,6.10
2023-04-06T16:31:24.020Z,6.22
2023-04-06T16:33:56.311Z,5.90
2023-04-06T16:36:24.914Z,6.18
2023-04-06T16:38:52.596Z,6.32
2023-04-06T16:41:21.088Z,6.35
2023-04-06T16:43:49.401Z,6.60
2023-04-06T16:46:17.277Z,6.22
2023-04-06T16:48:44.850Z,6.35
2023-04-06T16:51:12.171Z,6.30
2023-04-06T16:53:39.580Z,6.18
2023-04-06T16:58:34.716Z,6.63
2023-04-06T17:01:02.143Z,6.38
2023-04-06T17:03:30.778Z,6.32
2023-04-06T17:05:58.296Z,6.90
2023-04-06T17:08:25.777Z,6.40
2023-04-06T17:11:02.679Z,6.80
2023-04-06T17:13:31.388Z,6.80
2023-04-06T17:15:59.556Z,6.32
2023-04-06T17:18:26.978Z,6.18
2023-04-06T17:20:54.292Z,6.78
2023-04-06T17:23:23.262Z,6.50
2023-04-06T17:25:50.880Z,6.13
2023-04-06T17:28:19.555Z,6.60
2023-04-06T17:30:46.932Z,6.55
2023-04-06T17:33:15.875Z,7.38
2023-04-06T17:35:43.461Z,6.70
2023-04-06T17:38:11.193Z,6.05
2023-04-06T17:40:38.580Z,6.57
2023-04-06T17:43:05.979Z,6.38
2023-04-06T17:45:33.265Z,6.40
2023-04-06T17:48:00.820Z,6.30
2023-04-06T17:50:28.172Z,6.85
2023-04-06T17:52:55.696Z,7.03
2023-04-06T17:55:23.169Z,7.25
2023-04-06T17:57:50.649Z,7.38
2023-04-06T18:00:20.125Z,7.78
2023-04-06T18:02:47.523Z,8.25
2023-04-06T18:05:14.899Z,8.45
2023-04-06T18:07:42.314Z,9.00
2023-04-06T18:10:10.288Z,9.52
2023-04-06T18:12:37.787Z,9.90
2023-04-06T18:15:06.045Z,10.57
2023-04-06T18:17:34.144Z,9.40
2023-04-06T18:20:01.484Z,10.20
2023-04-06T18:22:28.982Z,10.02
2023-04-06T18:24:56.479Z,10.30
2023-04-06T18:27:25.322Z,10.50
2023-04-06T18:29:53.276Z,10.50
2023-04-06T18:32:20.599Z,10.80
2023-04-06T18:34:48.005Z,11.05
2023-04-06T18:37:16.319Z,10.02
2023-04-06T18:39:44.257Z,10.38
2023-04-06T18:42:11.764Z,10.98
2023-04-06T18:44:39.111Z,10.98
2023-04-06T18:47:06.517Z,11.63
2023-04-06T18:49:33.828Z,11.55
2023-04-06T18:52:01.824Z,11.45
2023-04-06T18:54:29.216Z,10.63
2023-04-06T18:56:56.835Z,12.38
2023-04-06T18:59:24.254Z,11.98
2023-04-06T19:01:54.072Z,10.93
2023-04-06T19:04:21.899Z,12.05
2023-04-06T19:06:49.453Z,11.60
2023-04-06T19:09:16.718Z,11.40
2023-04-06T19:11:44.106Z,11.60
2023-04-06T19:14:11.476Z,11.18
2023-04-06T19:16:41.244Z,12.77
2023-04-06T19:19:08.780Z,12.02
2023-04-06T19:21:36.168Z,12.05
2023-04-06T19:24:03.530Z,12.30
2023-04-06T19:26:32.580Z,11.80
2023-04-06T19:28:59.938Z,12.75
2023-04-06T19:31:27.945Z,12.63
2023-04-06T19:33:55.713Z,13.32
2023-04-06T19:36:23.211Z,13.40
2023-04-06T19:38:50.643Z,13.50
2023-04-06T19:41:17.982Z,14.35
2023-04-06T19:43:45.410Z,13.82
2023-04-06T19:46:14.710Z,14.23
2023-04-06T19:48:42.221Z,13.55
2023-04-06T19:51:09.641Z,13.73
2023-04-06T19:53:37.686Z,12.68
2023-04-06T19:56:05.070Z,13.57
2023-04-06T19:58:32.359Z,14.05
2023-04-06T20:00:59.818Z,13.73
2023-04-06T20:03:27.305Z,13.52
2023-04-06T20:05:54.694Z,13.82
2023-04-06T20:08:22.500Z,13.35
2023-04-06T20:10:49.891Z,14.60
2023-04-06T20:13:17.332Z,14.27
2023-04-06T20:15:45.135Z,13.82
2023-04-06T20:18:12.457Z,14.02
2023-04-06T20:20:39.810Z,13.85
2023-04-06T20:23:07.122Z,13.13
2023-04-06T20:25:34.514Z,13.77
2023-04-06T20:28:02.492Z,14.48
2023-04-06T20:30:29.932Z,13.73
2023-04-06T20:32:57.372Z,14.95
2023-04-06T20:35:25.297Z,14.50
2023-04-06T20:37:52.603Z,14.10
2023-04-06T20:40:20.215Z,13.15
2023-04-06T20:42:47.954Z,14.07
2023-04-06T20:45:15.324Z,13.90
2023-04-06T20:47:42.708Z,14.57
2023-04-06T20:50:10.412Z,14.25
2023-04-06T20:52:38.149Z,14.52
2023-04-06T20:55:06.134Z,14.77
2023-04-06T20:57:33.467Z,14.23
2023-04-06T21:00:01.213Z,14.73
2023-04-06T21:02:28.657Z,14.93
2023-04-06T21:04:56.356Z,15.35
2023-04-06T21:07:23.717Z,14.02
2023-04-06T21:09:51.315Z,15.13
2023-04-06T21:12:18.708Z,14.52
2023-04-06T21:14:46.060Z,14.10
2023-04-06T21:17:13.385Z,13.75
2023-04-06T21:19:40.751Z,14.10
2023-04-06T21:22:08.060Z,13.60
2023-04-06T21:24:35.609Z,13.70
2023-04-06T21:27:03.011Z,13.80
2023-04-06T21:29:32.302Z,13.20
2023-04-06T21:31:59.647Z,13.93
2023-04-06T21:34:26.960Z,13.27
2023-04-06T21:36:54.366Z,13.38
2023-04-06T21:39:24.010Z,13.23
2023-04-06T21:41:51.672Z,13.18
2023-04-06T21:44:19.150Z,13.07
2023-04-06T21:46:46.708Z,12.98
2023-04-06T21:49:14.066Z,12.43
2023-04-06T21:51:41.699Z,13.15
2023-04-06T21:54:09.096Z,12.43
2023-04-06T21:56:36.419Z,12.90
2023-04-06T21:59:03.754Z,12.18
2023-04-06T22:01:31.113Z,12.80
2023-04-06T22:03:58.720Z,12.60
2023-04-06T22:06:26.580Z,13.23
2023-04-06T22:08:53.990Z,12.05
2023-04-06T22:11:21.268Z,12.85
2023-04-06T22:13:48.574Z,11.70
2023-04-06T22:16:18.510Z,11.95
2023-04-06T22:18:45.969Z,11.65
2023-04-06T22:21:13.273Z,11.45
2023-04-06T22:23:42.397Z,11.95
2023-04-06T22:26:11.248Z,11.93
2023-04-06T22:28:38.678Z,10.15
2023-04-06T22:31:06.057Z,11.52
2023-04-06T22:33:33.445Z,11.60
2023-04-06T22:36:00.916Z,11.55
2023-04-06T22:38:28.239Z,11.57
2023-04-06T22:40:55.591Z,10.98
2023-04-06T22:43:22.963Z,10.70
2023-04-06T22:45:50.290Z,11.40
2023-04-06T22:48:17.656Z,10.55
2023-04-06T22:50:45.269Z,9.93
2023-04-06T22:53:12.577Z,10.27
2023-04-06T22:55:41.071Z,10.35
2023-04-06T22:58:08.406Z,9.18
2023-04-06T23:00:36.014Z,10.63
2023-04-06T23:03:03.606Z,9.60
2023-04-06T23:05:31.125Z,10.02
2023-04-06T23:07:58.414Z,9.65
2023-04-06T23:10:25.705Z,9.88
2023-04-06T23:12:52.991Z,9.52
2023-04-06T23:15:20.427Z,9.13
2023-04-06T23:17:47.839Z,9.13
2023-04-06T23:20:15.773Z,9.20
2023-04-06T23:22:43.343Z,8.85
2023-04-06T23:25:10.924Z,8.48
2023-04-06T23:27:38.301Z,9.35
2023-04-06T23:30:06.674Z,8.43
2023-04-06T23:32:34.153Z,8.38
2023-04-06T23:35:01.645Z,8.45
2023-04-06T23:37:29.020Z,8.32
2023-04-06T23:39:56.366Z,8.88
2023-04-06T23:42:28.864Z,8.65
2023-04-06T23:44:56.522Z,8.65
2023-04-06T23:47:23.970Z,8.63
2023-04-06T23:49:51.328Z,8.38
2023-04-06T23:52:18.748Z,8.95
2023-04-06T23:54:46.177Z,8.45
2023-04-06T23:57:13.453Z,8.65
2023-04-06T23:59:40.763Z,9.00
